Time;durP1;ratioP1;P1;durP2;ratioP2;P2;SDS_P1;SDS_P2;PMS_P1;PMS_P2;Temp;Humidity;BMP_temperature;BMP_pressure;BME280_temperature;BME280_humidity;BME280_pressure;Samples;Min_cycle;Max_cycle;Signal;HPM_P1;HPM_P2
2021/05/01 00:00:27;;;;;;;12.00;10.45;;;;;;;11.06;32.16;100977.94;5003536;28;96786;-71
2021/05/01 00:02:54;;;;;;;13.50;11.93;;;;;;;11.03;32.32;100984.97;5002065;28;97920;-70
2021/05/01 00:05:22;;;;;;;12.93;11.35;;;;;;;11.00;32.23;100982.22;5002208;28;97167;-71
2021/05/01 00:07:55;;;;;;;12.15;10.27;;;;;;;10.98;32.42;100976.88;5001320;28;96899;-71
2021/05/01 00:10:22;;;;;;;12.43;10.90;;;;;;;10.96;32.32;100969.69;5003050;28;97062;-71
2021/05/01 00:12:50;;;;;;;13.13;10.73;;;;;;;10.96;32.31;100967.94;4999859;28;97885;-72
2021/05/01 00:15:17;;;;;;;11.63;10.43;;;;;;;10.95;32.37;100958.16;5001223;28;97846;-72
2021/05/01 00:17:45;;;;;;;11.50;10.30;;;;;;;10.94;32.20;100958.13;5001992;28;97244;-72
2021/05/01 00:20:13;;;;;;;10.52;9.48;;;;;;;10.91;32.13;100953.63;5000323;28;96949;-73
2021/05/01 00:22:41;;;;;;;12.27;10.98;;;;;;;10.87;32.42;100956.16;5002269;28;96725;-72
2021/05/01 00:25:11;;;;;;;14.13;10.20;;;;;;;10.83;32.51;100957.88;5016162;27;96931;-74
2021/05/01 00:27:38;;;;;;;12.52;10.13;;;;;;;10.83;32.59;100957.00;5002646;28;96812;-73
2021/05/01 00:30:06;;;;;;;13.50;10.15;;;;;;;10.78;32.55;100955.97;4999981;28;96849;-73
2021/05/01 00:32:34;;;;;;;12.00;10.15;;;;;;;10.77;32.62;100948.84;4992825;28;97375;-72
2021/05/01 00:35:01;;;;;;;11.98;10.77;;;;;;;10.74;32.68;100959.44;4999236;28;96852;-73
2021/05/01 00:37:29;;;;;;;12.73;10.30;;;;;;;10.72;32.59;100948.72;5001363;28;96794;-72
2021/05/01 00:39:57;;;;;;;10.23;9.07;;;;;;;10.75;32.55;100951.50;5002167;28;97254;-71
2021/05/01 00:42:25;;;;;;;10.70;9.70;;;;;;;10.75;32.68;100948.81;5001032;28;97031;-71
2021/05/01 00:44:52;;;;;;;11.88;10.68;;;;;;;10.75;32.59;100945.25;5004078;28;97435;-72
2021/05/01 00:47:20;;;;;;;12.48;10.25;;;;;;;10.73;32.47;100949.66;5002237;28;96831;-71
2021/05/01 00:49:47;;;;;;;11.18;9.48;;;;;;;10.70;32.61;100953.13;5000935;28;96904;-74
2021/05/01 00:52:15;;;;;;;12.57;10.20;;;;;;;10.66;32.63;100945.97;5002943;28;97104;-72
2021/05/01 00:54:43;;;;;;;12.70;10.85;;;;;;;10.66;32.75;100947.72;5002172;28;98270;-72
2021/05/01 00:57:10;;;;;;;12.30;9.80;;;;;;;10.63;32.91;100942.31;5000922;28;96997;-71
2021/05/01 00:59:40;;;;;;;11.07;9.15;;;;;;;10.59;32.81;100953.75;5001597;28;97193;-71
2021/05/01 01:02:08;;;;;;;10.40;9.40;;;;;;;10.56;32.82;100948.34;5003066;28;99035;-72
2021/05/01 01:04:35;;;;;;;12.18;9.43;;;;;;;10.55;32.77;100951.88;5002316;28;97790;-73
2021/05/01 01:07:03;;;;;;;10.90;9.77;;;;;;;10.56;32.78;100949.25;5003020;28;96963;-73
2021/05/01 01:09:30;;;;;;;11.13;9.95;;;;;;;10.56;32.77;100954.56;5000452;28;96864;-73
2021/05/01 01:11:58;;;;;;;10.65;9.55;;;;;;;10.56;32.72;100951.00;5002279;28;97959;-72
2021/05/01 01:14:25;;;;;;;12.82;11.05;;;;;;;10.54;32.80;100952.75;5011357;27;97927;-73
2021/05/01 01:16:54;;;;;;;12.35;10.45;;;;;;;10.53;32.81;100948.28;5002109;28;96678;-73
2021/05/01 01:19:21;;;;;;;11.43;10.32;;;;;;;10.54;32.79;100955.41;5001789;28;96953;-73
2021/05/01 01:21:50;;;;;;;12.00;10.50;;;;;;;10.52;32.88;100952.69;5000948;28;100985;-72
2021/05/01 01:24:18;;;;;;;10.80;9.60;;;;;;;10.53;32.81;100950.94;5000555;28;98911;-73
2021/05/01 01:26:46;;;;;;;11.30;10.18;;;;;;;10.50;32.73;100949.13;5004700;28;97195;-72
2021/05/01 01:29:14;;;;;;;11.07;9.98;;;;;;;10.48;32.97;100947.28;5003838;28;97103;-72
2021/05/01 01:31:42;;;;;;;13.68;12.27;;;;;;;10.37;34.07;100947.00;5002378;28;98962;-72
2021/05/01 01:34:10;;;;;;;12.68;10.48;;;;;;;10.48;33.55;100949.94;5004075;28;100882;-72
2021/05/01 01:36:38;;;;;;;14.45;10.88;;;;;;;10.52;33.36;100959.78;5014002;27;96840;-72
2021/05/01 01:39:05;;;;;;;12.25;10.05;;;;;;;10.50;33.24;100956.19;5005506;28;96887;-72
2021/05/01 01:41:33;;;;;;;12.50;10.20;;;;;;;10.46;33.24;100955.22;5004417;28;97485;-72
2021/05/01 01:44:02;;;;;;;11.52;9.48;;;;;;;10.47;33.22;100956.09;5004658;28;100868;-72
2021/05/01 01:46:29;;;;;;;11.45;10.30;;;;;;;10.46;33.06;100952.56;5004748;28;97210;-73
2021/05/01 01:48:56;;;;;;;11.30;9.95;;;;;;;10.43;33.33;100962.25;5005170;28;96834;-74
2021/05/01 01:51:24;;;;;;;11.95;10.38;;;;;;;10.39;33.28;100960.31;5021483;27;99654;-73
2021/05/01 01:53:51;;;;;;;11.82;10.73;;;;;;;10.39;33.36;100955.00;5003542;28;97257;-72
2021/05/01 01:56:19;;;;;;;12.77;10.80;;;;;;;10.41;33.18;100955.94;5004954;28;96941;-73
2021/05/01 01:58:47;;;;;;;11.25;9.90;;;;;;;10.39;33.22;100955.00;5010940;27;97414;-73
2021/05/01 02:01:14;;;;;;;13.88;11.05;;;;;;;10.37;33.42;100949.66;5004469;28;99056;-72
2021/05/01 02:03:42;;;;;;;13.95;10.95;;;;;;;10.37;33.17;100952.31;5004997;28;99732;-73
2021/05/01 02:06:09;;;;;;;12.60;10.27;;;;;;;10.33;33.27;100949.53;5001080;28;97310;-72
2021/05/01 02:08:36;;;;;;;12.70;10.05;;;;;;;10.31;33.38;100945.91;5003802;28;96814;-73
2021/05/01 02:11:04;;;;;;;11.90;10.60;;;;;;;10.29;33.29;100947.63;5004355;28;99034;-73
2021/05/01 02:13:31;;;;;;;12.38;10.13;;;;;;;10.25;33.49;100946.66;5001644;28;99226;-72
2021/05/01 02:16:00;;;;;;;11.88;9.98;;;;;;;10.26;33.23;100937.84;5004046;28;97667;-74
2021/05/01 02:18:29;;;;;;;11.80;10.60;;;;;;;10.27;33.36;100933.41;4997096;28;97188;-74
2021/05/01 02:20:57;;;;;;;12.48;10.95;;;;;;;10.27;33.37;100949.34;5004278;28;99342;-71
2021/05/01 02:23:24;;;;;;;11.77;10.13;;;;;;;10.27;33.38;100936.06;5006288;28;97884;-72
2021/05/01 02:25:51;;;;;;;10.90;9.75;;;;;;;10.24;33.64;100934.25;5004014;28;96774;-73
2021/05/01 02:28:19;;;;;;;12.60;10.13;;;;;;;10.25;33.05;100929.84;5019500;27;96964;-72
2021/05/01 02:30:46;;;;;;;13.45;10.52;;;;;;;10.30;33.35;100923.78;5004496;28;97524;-73
2021/05/01 02:33:15;;;;;;;13.77;10.73;;;;;;;10.31;33.28;100921.97;4998180;28;97144;-72
2021/05/01 02:35:42;;;;;;;13.45;10.93;;;;;;;10.33;33.19;100926.50;5001140;28;97383;-73
2021/05/01 02:38:10;;;;;;;14.23;10.35;;;;;;;10.29;33.32;100916.63;5018005;27;98319;-71
2021/05/01 02:40:37;;;;;;;12.52;10.13;;;;;;;10.25;33.27;100916.53;5003661;28;99269;-72
2021/05/01 02:43:05;;;;;;;12.45;10.60;;;;;;;10.25;33.42;100917.41;5001719;28;97965;-72
2021/05/01 02:45:32;;;;;;;13.75;10.82;;;;;;;10.24;33.30;100912.97;5014067;27;97390;-73
2021/05/01 02:48:00;;;;;;;13.05;11.52;;;;;;;10.25;33.33;100905.91;5005912;28;97269;-72
2021/05/01 02:50:29;;;;;;;14.63;10.52;;;;;;;10.27;33.27;100907.72;5004221;28;98776;-72
2021/05/01 02:52:57;;;;;;;11.90;10.38;;;;;;;10.25;33.50;100911.22;5004736;28;97810;-72
2021/05/01 02:55:24;;;;;;;12.32;10.15;;;;;;;10.23;33.50;100906.75;5005879;28;97354;-73
2021/05/01 02:57:53;;;;;;;12.15;10.75;;;;;;;10.20;33.49;100911.09;5003891;28;96859;-73
2021/05/01 03:00:23;;;;;;;13.05;10.00;;;;;;;10.15;33.54;100897.69;5004427;28;97191;-72
2021/05/01 03:02:52;;;;;;;13.30;10.75;;;;;;;10.15;33.35;100896.78;5004440;28;98990;-73
2021/05/01 03:05:20;;;;;;;12.18;10.43;;;;;;;10.15;33.61;100897.69;5006479;28;96689;-72
2021/05/01 03:07:48;;;;;;;12.45;10.18;;;;;;;10.17;33.49;100898.59;5004937;28;97145;-72
2021/05/01 03:10:17;;;;;;;13.48;10.95;;;;;;;10.19;33.61;100902.19;5001887;28;98834;-73
2021/05/01 03:12:44;;;;;;;10.80;9.65;;;;;;;10.19;33.32;100899.53;5019653;27;98006;-72
2021/05/01 03:15:14;;;;;;;12.10;10.55;;;;;;;10.20;33.46;100911.09;5006284;28;96927;-72
2021/05/01 03:17:41;;;;;;;10.95;9.73;;;;;;;10.22;33.39;100904.06;5003662;28;96952;-72
2021/05/01 03:20:10;;;;;;;10.63;9.60;;;;;;;10.23;33.35;100898.75;5019272;27;97951;-73
2021/05/01 03:22:38;;;;;;;11.63;10.32;;;;;;;10.21;33.71;100892.50;5003768;28;97456;-73
2021/05/01 03:25:09;;;;;;;12.00;9.88;;;;;;;10.21;33.46;100894.25;5003458;28;96862;-73
2021/05/01 03:27:37;;;;;;;11.30;9.90;;;;;;;10.18;33.42;100891.53;5011689;27;97179;-73
2021/05/01 03:30:08;;;;;;;12.90;10.10;;;;;;;10.16;33.38;100888.84;5020397;27;98758;-73
2021/05/01 03:32:35;;;;;;;12.55;10.95;;;;;;;10.14;33.36;100898.53;5004126;28;98101;-72
2021/05/01 03:35:03;;;;;;;11.93;10.10;;;;;;;10.16;33.55;100898.56;5004460;28;96845;-72
2021/05/01 03:37:31;;;;;;;10.98;9.88;;;;;;;10.11;33.59;100898.47;5003288;28;96913;-73
2021/05/01 03:39:59;;;;;;;11.70;10.55;;;;;;;10.11;33.59;100898.47;5002837;28;97596;-74
2021/05/01 03:42:29;;;;;;;13.40;10.77;;;;;;;10.11;33.44;100911.78;5003207;28;96743;-72
2021/05/01 03:44:56;;;;;;;12.38;10.73;;;;;;;10.11;33.50;100900.22;5004176;28;96773;-72
2021/05/01 03:47:23;;;;;;;13.05;11.00;;;;;;;10.11;33.52;100906.44;4999737;28;97067;-72
2021/05/01 03:49:51;;;;;;;11.38;10.27;;;;;;;10.08;33.48;100917.00;5001669;28;100151;-73
2021/05/01 03:52:19;;;;;;;15.40;10.80;;;;;;;10.09;33.48;100907.25;5004223;28;97764;-72
2021/05/01 03:54:46;;;;;;;12.10;10.45;;;;;;;10.09;33.40;100907.25;5003606;28;97341;-73
2021/05/01 03:57:13;;;;;;;11.82;10.35;;;;;;;10.09;33.55;100908.16;5017616;27;97009;-73
2021/05/01 03:59:41;;;;;;;13.88;10.85;;;;;;;10.10;33.51;100914.41;5018053;27;97895;-72
2021/05/01 04:02:09;;;;;;;12.75;11.07;;;;;;;10.09;33.58;100920.56;4984757;28;99407;-73
2021/05/01 04:04:36;;;;;;;14.15;11.65;;;;;;;10.08;33.61;100916.13;5000206;28;96742;-72
2021/05/01 04:07:04;;;;;;;12.60;10.73;;;;;;;10.08;33.55;100921.44;5002783;28;96411;-73
2021/05/01 04:09:32;;;;;;;13.65;10.95;;;;;;;10.08;33.56;100922.31;4999898;28;98805;-72
2021/05/01 04:11:59;;;;;;;14.00;10.63;;;;;;;10.09;33.48;100915.25;5018161;28;97487;-73
2021/05/01 04:14:27;;;;;;;11.98;10.63;;;;;;;10.09;33.60;100918.81;5003362;28;96928;-72
2021/05/01 04:16:55;;;;;;;12.25;10.68;;;;;;;10.09;33.57;100917.91;5016993;27;97439;-73
2021/05/01 04:19:22;;;;;;;13.70;11.60;;;;;;;10.11;33.61;100917.09;4999107;28;97289;-74
2021/05/01 04:21:50;;;;;;;12.95;10.68;;;;;;;10.15;33.51;100910.09;5001742;28;97633;-73
2021/05/01 04:24:17;;;;;;;14.70;11.82;;;;;;;10.16;33.53;100909.22;5004292;28;96701;-73
2021/05/01 04:26:45;;;;;;;14.00;10.80;;;;;;;10.16;33.48;100918.09;5002313;28;96915;-73
2021/05/01 04:29:12;;;;;;;13.52;11.57;;;;;;;10.13;33.57;100920.69;5002266;28;97185;-73
2021/05/01 04:31:39;;;;;;;12.55;10.88;;;;;;;10.10;33.51;100914.41;5004498;28;100324;-73
2021/05/01 04:34:07;;;;;;;13.38;10.63;;;;;;;10.08;33.51;100924.97;4999081;28;96873;-73
2021/05/01 04:36:35;;;;;;;12.80;10.45;;;;;;;10.06;33.45;100923.16;4998944;28;97118;-72
2021/05/01 04:39:07;;;;;;;16.73;11.40;;;;;;;10.07;33.62;100925.84;5000109;28;98467;-72
2021/05/01 04:41:34;;;;;;;14.23;10.90;;;;;;;10.06;33.52;100932.00;5001244;28;97347;-72
2021/05/01 04:44:03;;;;;;;15.10;11.25;;;;;;;10.06;33.55;100923.16;5000957;28;97357;-72
2021/05/01 04:46:30;;;;;;;12.07;10.82;;;;;;;10.06;33.71;100924.03;5001813;28;97278;-75
2021/05/01 04:48:58;;;;;;;14.95;11.65;;;;;;;10.08;33.63;100922.31;5009895;28;97651;-73
2021/05/01 04:51:26;;;;;;;14.88;11.32;;;;;;;10.17;33.38;100926.97;5000792;28;97912;-73
2021/05/01 04:53:54;;;;;;;13.80;11.63;;;;;;;10.16;33.46;100931.38;5002402;28;96807;-71
2021/05/01 04:56:21;;;;;;;20.50;13.98;;;;;;;10.11;33.47;100917.09;5003005;28;96963;-71
2021/05/01 04:58:48;;;;;;;20.10;13.90;;;;;;;10.12;33.53;100917.97;4999800;28;98021;-71
2021/05/01 05:01:16;;;;;;;15.48;12.27;;;;;;;10.12;33.54;100917.97;5003876;28;97726;-71
2021/05/01 05:03:43;;;;;;;14.02;12.25;;;;;;;10.05;33.49;100922.25;5005253;28;97419;-72
2021/05/01 05:06:11;;;;;;;13.55;11.48;;;;;;;10.05;33.64;100916.00;5004722;28;96627;-71
2021/05/01 05:08:39;;;;;;;17.27;12.02;;;;;;;9.98;33.80;100920.28;5019086;27;97990;-72
2021/05/01 05:11:06;;;;;;;15.10;11.52;;;;;;;9.97;33.77;100915.81;5005040;28;97999;-72
2021/05/01 05:13:34;;;;;;;17.25;11.52;;;;;;;9.98;33.65;100922.03;5005837;28;97799;-72
2021/05/01 05:16:02;;;;;;;26.30;15.82;;;;;;;9.98;33.64;100925.59;5005922;28;96940;-72
2021/05/01 05:18:30;;;;;;;18.27;14.07;;;;;;;9.95;33.83;100929.94;5002650;28;97918;-72
2021/05/01 05:20:58;;;;;;;15.38;12.45;;;;;;;9.92;33.78;100927.19;5004240;28;100061;-73
2021/05/01 05:23:26;;;;;;;14.88;12.35;;;;;;;9.93;33.76;100927.25;5003904;28;96941;-72
2021/05/01 05:25:54;;;;;;;13.70;11.77;;;;;;;9.92;33.84;100930.75;5004564;28;96941;-73
2021/05/01 05:28:22;;;;;;;15.63;12.63;;;;;;;9.94;33.72;100922.81;4999796;28;97075;-74
2021/05/01 05:30:49;;;;;;;17.35;12.32;;;;;;;9.94;33.73;100926.38;5004068;28;99112;-73
2021/05/01 05:33:16;;;;;;;14.45;12.38;;;;;;;9.99;33.79;100926.53;5003102;28;96806;-73
2021/05/01 05:35:44;;;;;;;14.85;12.38;;;;;;;10.00;33.75;100926.56;5005151;28;97051;-73
2021/05/01 05:38:11;;;;;;;15.50;13.25;;;;;;;10.00;33.66;100922.97;5003493;28;96782;-74
2021/05/01 05:40:40;;;;;;;16.27;13.15;;;;;;;9.99;33.77;100923.84;5003893;28;99204;-72
2021/05/01 05:43:09;;;;;;;15.02;12.10;;;;;;;10.00;33.78;100920.31;5004069;28;97380;-72
2021/05/01 05:45:38;;;;;;;16.60;12.10;;;;;;;10.03;33.75;100925.72;5010885;28;97843;-73
2021/05/01 05:48:05;;;;;;;15.00;12.23;;;;;;;10.02;33.80;100930.16;5004122;28;98162;-73
2021/05/01 05:50:33;;;;;;;13.88;12.00;;;;;;;10.04;33.72;100925.78;5018373;27;98483;-73
2021/05/01 05:53:00;;;;;;;17.17;12.32;;;;;;;10.05;33.81;100931.97;5021253;27;96988;-75
2021/05/01 05:55:53;;;;;;;14.25;12.38;;;;;;;10.12;34.35;100932.16;5006420;28;96811;-73
2021/05/01 05:58:22;;;;;;;31.17;18.05;;;;;;;10.11;33.70;100933.03;5003825;28;100402;-72
2021/05/01 06:00:49;;;;;;;19.92;14.98;;;;;;;10.14;33.74;100929.53;5002966;28;97134;-73
2021/05/01 06:03:17;;;;;;;15.10;12.05;;;;;;;10.16;33.65;100927.81;5001474;28;96817;-72
2021/05/01 06:05:49;;;;;;;17.25;12.40;;;;;;;10.18;33.79;100928.75;5019870;27;96814;-72
2021/05/01 06:08:17;;;;;;;15.52;12.95;;;;;;;10.20;33.67;100929.69;5002766;28;98112;-72
2021/05/01 06:10:45;;;;;;;17.40;12.50;;;;;;;10.24;33.72;100920.94;5002801;28;96830;-73
2021/05/01 06:13:13;;;;;;;14.88;12.65;;;;;;;10.27;33.67;100922.75;5002621;28;96860;-72
2021/05/01 06:15:42;;;;;;;15.65;12.63;;;;;;;10.23;33.89;100915.59;5011729;27;97288;-72
2021/05/01 06:18:12;;;;;;;15.20;12.43;;;;;;;10.21;33.89;100913.78;5003502;28;97454;-72
2021/05/01 06:20:40;;;;;;;14.68;12.70;;;;;;;10.23;33.83;100901.41;5001705;28;97694;-72
2021/05/01 06:23:07;;;;;;;15.88;12.98;;;;;;;10.27;33.84;100910.38;5006117;28;96802;-72
2021/05/01 06:25:35;;;;;;;15.02;12.13;;;;;;;10.30;33.77;100912.22;5005435;28;96972;-73
2021/05/01 06:28:03;;;;;;;17.27;12.77;;;;;;;10.36;33.73;100920.31;5002282;28;98239;-73
2021/05/01 06:30:31;;;;;;;17.40;12.73;;;;;;;10.40;33.61;100908.91;5005680;28;96714;-73
2021/05/01 06:33:02;;;;;;;15.32;12.32;;;;;;;10.43;33.39;100909.91;5006309;28;96758;-73
2021/05/01 06:35:30;;;;;;;15.40;13.10;;;;;;;10.46;33.95;100903.78;4998780;28;97435;-74
2021/05/01 06:37:57;;;;;;;14.15;12.32;;;;;;;10.51;33.66;100904.78;5001750;28;99326;-74
2021/05/01 06:40:31;;;;;;;15.90;12.50;;;;;;;10.59;33.60;100911.19;5003551;28;97238;-73
2021/05/01 06:43:03;;;;;;;21.30;13.32;;;;;;;10.63;33.67;100913.06;5004890;28;96872;-72
2021/05/01 06:45:34;;;;;;;15.75;12.45;;;;;;;10.66;33.60;100910.44;5010502;28;96021;-73
2021/05/01 06:48:04;;;;;;;16.33;12.73;;;;;;;10.73;33.66;100907.06;5009275;28;97248;-73
2021/05/01 06:50:32;;;;;;;17.50;12.95;;;;;;;10.78;33.48;100913.38;5007926;28;97810;-73
2021/05/01 06:53:01;;;;;;;18.35;13.13;;;;;;;10.78;33.46;100906.28;5011008;28;97065;-74
2021/05/01 06:55:30;;;;;;;18.42;12.35;;;;;;;10.78;33.50;100911.63;5011702;28;96904;-72
2021/05/01 06:57:59;;;;;;;15.95;12.85;;;;;;;10.79;33.66;100913.44;5010678;28;96690;-73
2021/05/01 07:00:29;;;;;;;17.63;13.07;;;;;;;10.84;33.33;100910.84;5003909;28;96903;-72
2021/05/01 07:03:04;;;;;;;16.00;13.30;;;;;;;10.88;33.68;100913.63;5003952;28;97262;-72
2021/05/01 07:05:33;;;;;;;15.75;12.80;;;;;;;10.87;33.56;100921.56;4987456;28;96790;-71
2021/05/01 07:08:01;;;;;;;18.30;13.20;;;;;;;10.86;33.70;100928.69;5002412;28;98128;-71
2021/05/01 07:10:28;;;;;;;18.33;13.27;;;;;;;10.87;33.50;100929.56;4999758;28;100859;-72
2021/05/01 07:12:55;;;;;;;15.98;13.77;;;;;;;10.86;33.73;100930.44;5000893;28;96747;-72
2021/05/01 07:15:22;;;;;;;14.35;12.65;;;;;;;10.87;33.72;100926.88;5001452;28;98011;-71
2021/05/01 07:17:51;;;;;;;19.63;13.60;;;;;;;10.88;33.47;100926.03;4999882;28;97938;-71
2021/05/01 07:20:21;;;;;;;19.50;14.02;;;;;;;10.89;33.76;100925.16;5015934;27;97789;-71
2021/05/01 07:22:50;;;;;;;15.50;12.93;;;;;;;10.93;33.59;100929.69;4999878;28;97275;-72
2021/05/01 07:25:17;;;;;;;19.80;13.90;;;;;;;10.98;33.70;100928.03;5001474;28;96881;-72
2021/05/01 07:27:52;;;;;;;27.75;18.60;;;;;;;10.99;33.73;100927.19;4999799;28;97313;-71
2021/05/01 07:30:28;;;;;;;20.58;15.80;;;;;;;11.05;33.55;100935.28;5000095;28;97815;-73
2021/05/01 07:33:25;;;;;;;19.05;13.48;;;;;;;11.09;33.35;100932.72;5001199;28;96885;-70
2021/05/01 07:35:55;;;;;;;22.38;14.43;;;;;;;11.11;33.28;100931.00;5002194;28;96856;-71
2021/05/01 07:38:24;;;;;;;17.58;13.57;;;;;;;11.08;33.40;100922.94;4999701;28;97968;-72
2021/05/01 07:40:52;;;;;;;18.48;14.23;;;;;;;11.11;33.38;100927.44;5000619;28;97258;-71
2021/05/01 07:43:21;;;;;;;19.67;14.27;;;;;;;11.11;33.52;100922.09;5001220;28;96847;-71
2021/05/01 07:45:52;;;;;;;17.77;14.23;;;;;;;11.17;33.62;100915.16;4998777;28;96792;-73
2021/05/01 07:48:21;;;;;;;16.05;13.75;;;;;;;11.23;33.46;100917.91;5002001;28;97982;-70
2021/05/01 07:50:49;;;;;;;19.48;14.55;;;;;;;11.28;33.66;100918.03;5000349;28;96886;-72
2021/05/01 07:53:17;;;;;;;18.35;15.05;;;;;;;11.33;33.25;100916.38;5001534;28;97361;-72
2021/05/01 07:55:44;;;;;;;17.42;13.85;;;;;;;11.35;33.45;100916.41;5001528;28;97229;-71
2021/05/01 07:58:12;;;;;;;18.05;15.00;;;;;;;11.38;33.42;100913.84;5002959;28;97058;-72
2021/05/01 08:00:41;;;;;;;19.88;15.07;;;;;;;11.44;33.31;100914.84;4999917;28;99910;-72
2021/05/01 08:03:08;;;;;;;16.90;13.75;;;;;;;11.53;33.11;100909.69;4972420;28;97695;-73
2021/05/01 08:05:36;;;;;;;17.98;14.15;;;;;;;11.56;33.27;100899.06;4989603;28;96911;-71
2021/05/01 08:08:03;;;;;;;17.33;13.30;;;;;;;11.64;32.95;100901.88;5001124;28;97307;-71
2021/05/01 08:10:32;;;;;;;18.90;13.18;;;;;;;11.71;32.95;100898.44;4997706;28;97180;-73
2021/05/01 08:12:59;;;;;;;18.58;14.05;;;;;;;11.79;33.06;100897.75;4998812;28;96835;-72
2021/05/01 08:15:30;;;;;;;18.98;14.90;;;;;;;11.84;32.90;100896.06;4999123;28;97604;-71
2021/05/01 08:17:58;;;;;;;17.70;14.20;;;;;;;11.92;32.82;100904.19;4994914;28;97969;-72
2021/05/01 08:20:25;;;;;;;18.70;14.52;;;;;;;12.02;32.83;100906.13;4995752;28;97844;-72
2021/05/01 08:22:52;;;;;;;17.17;13.25;;;;;;;12.14;32.62;100906.34;4998612;28;97214;-72
2021/05/01 08:25:22;;;;;;;15.18;12.65;;;;;;;12.31;32.43;100904.00;4996972;28;97200;-71
2021/05/01 08:27:50;;;;;;;22.90;17.52;;;;;;;12.26;33.49;100906.56;4994955;28;97399;-72
2021/05/01 08:30:18;;;;;;;17.27;13.93;;;;;;;12.44;32.76;100904.19;4977486;28;97947;-71
2021/05/01 08:32:46;;;;;;;17.13;14.63;;;;;;;12.49;32.87;100906.94;4991381;28;97065;-72
2021/05/01 08:35:15;;;;;;;15.98;13.45;;;;;;;12.58;32.71;100889.31;5010583;28;97027;-72
2021/05/01 08:37:43;;;;;;;16.92;12.90;;;;;;;12.63;32.57;100894.69;5009510;27;99487;-70
2021/05/01 08:40:12;;;;;;;20.10;13.23;;;;;;;12.70;32.50;100899.25;5012309;27;98298;-71
2021/05/01 08:42:42;;;;;;;15.73;12.65;;;;;;;12.78;32.29;100894.94;5002534;28;97423;-72
2021/05/01 08:45:12;;;;;;;30.52;20.83;;;;;;;12.91;32.34;100904.91;5002018;28;97284;-71
2021/05/01 08:47:43;;;;;;;16.77;13.27;;;;;;;13.04;32.06;100893.50;4997627;28;97764;-71
2021/05/01 08:50:31;;;;;;;18.40;14.18;;;;;;;13.14;32.06;100895.44;5003001;28;97757;-71
2021/05/01 08:53:01;;;;;;;19.25;14.27;;;;;;;13.10;31.93;100901.63;5002172;28;97257;-72
2021/05/01 08:55:34;;;;;;;16.27;12.63;;;;;;;13.12;31.93;100897.19;5004488;28;96819;-72
2021/05/01 08:58:02;;;;;;;18.55;13.43;;;;;;;13.17;31.93;100892.78;5003857;28;100985;-71
2021/05/01 09:00:31;;;;;;;16.08;13.52;;;;;;;13.22;31.82;100893.78;5002733;28;97996;-72
2021/05/01 09:03:02;;;;;;;16.30;12.52;;;;;;;13.26;31.75;100898.25;5002356;28;97431;-71
2021/05/01 09:05:31;;;;;;;18.17;14.00;;;;;;;13.27;31.73;100899.16;4997568;28;99166;-72
2021/05/01 09:07:59;;;;;;;15.73;13.18;;;;;;;13.28;31.69;100892.91;5000953;28;97762;-72
2021/05/01 09:10:38;;;;;;;14.75;12.70;;;;;;;13.41;31.52;100890.41;5000975;28;97264;-72
2021/05/01 09:13:17;;;;;;;15.10;12.40;;;;;;;13.51;31.38;100878.97;5002545;28;96966;-73
2021/05/01 09:16:00;;;;;;;16.48;13.68;;;;;;;13.62;31.46;100881.75;5002727;28;97031;-72
2021/05/01 09:18:30;;;;;;;15.75;12.65;;;;;;;13.68;31.33;100892.47;5001777;28;97107;-72
2021/05/01 09:21:11;;;;;;;15.38;12.40;;;;;;;13.79;31.21;100888.16;4999511;28;98686;-72
2021/05/01 09:23:39;;;;;;;14.70;12.07;;;;;;;13.80;31.04;100887.31;4998856;28;96867;-72
2021/05/01 09:26:07;;;;;;;15.30;12.48;;;;;;;13.82;30.96;100872.16;5010366;27;96926;-72
2021/05/01 09:28:40;;;;;;;14.70;11.75;;;;;;;13.79;30.86;100878.38;5002009;28;98667;-72
2021/05/01 09:31:10;;;;;;;14.02;10.98;;;;;;;13.85;30.86;100882.88;4998674;28;97419;-72
2021/05/01 09:33:39;;;;;;;14.23;12.68;;;;;;;13.87;30.99;100868.66;5002248;28;97474;-72
2021/05/01 09:36:10;;;;;;;11.90;10.63;;;;;;;13.90;30.79;100875.78;4997900;28;96929;-72
2021/05/01 09:38:40;;;;;;;15.93;12.70;;;;;;;13.91;30.78;100875.81;4992195;28;99459;-73
2021/05/01 09:41:11;;;;;;;13.75;11.60;;;;;;;13.94;30.75;100880.28;4994109;28;97320;-71
2021/05/01 09:44:13;;;;;;;13.93;11.95;;;;;;;13.98;30.22;100887.47;4998113;28;96936;-71
2021/05/01 09:46:47;;;;;;;12.65;10.88;;;;;;;13.97;30.63;100880.31;4934295;28;97138;-72
2021/05/01 09:49:17;;;;;;;46.35;29.88;;;;;;;14.02;30.55;100874.09;4932319;28;99085;-72
2021/05/01 09:51:50;;;;;;;18.02;14.48;;;;;;;14.08;30.33;100863.47;4974153;27;98126;-72
2021/05/01 09:54:20;;;;;;;17.08;12.80;;;;;;;14.16;30.28;100866.22;4994289;28;97293;-72
2021/05/01 09:56:49;;;;;;;20.08;14.02;;;;;;;14.25;30.22;100876.09;4975271;28;97488;-72
2021/05/01 09:59:16;;;;;;;16.25;12.80;;;;;;;14.30;30.38;100872.56;4992364;28;97861;-72
2021/05/01 10:01:55;;;;;;;14.40;11.77;;;;;;;14.43;30.14;100860.16;5010086;27;97830;-71
2021/05/01 10:04:23;;;;;;;12.43;11.13;;;;;;;14.51;30.04;100848.63;5010793;28;98272;-71
2021/05/01 10:07:02;;;;;;;12.55;11.25;;;;;;;14.66;29.84;100839.81;5002958;27;96889;-71
2021/05/01 10:09:32;;;;;;;11.95;10.75;;;;;;;14.75;29.94;100842.53;4994279;28;97755;-72
2021/05/01 10:12:07;;;;;;;12.43;11.18;;;;;;;14.81;29.58;100832.72;4994797;28;96846;-72
2021/05/01 10:14:44;;;;;;;12.20;10.90;;;;;;;14.91;29.37;100829.22;4996027;28;97606;-72
2021/05/01 10:17:13;;;;;;;12.38;10.93;;;;;;;14.95;29.42;100825.66;4987890;28;97527;-71
2021/05/01 10:19:49;;;;;;;11.50;8.98;;;;;;;15.04;29.12;100825.69;4993434;28;97441;-71
2021/05/01 10:22:28;;;;;;;11.57;10.38;;;;;;;15.13;29.07;100819.47;4995832;28;98023;-71
2021/05/01 10:24:57;;;;;;;11.70;10.50;;;;;;;15.20;29.28;100821.28;4995734;28;97666;-71
2021/05/01 10:27:25;;;;;;;12.15;10.85;;;;;;;15.30;29.45;100817.78;4997355;28;97285;-71
2021/05/01 10:30:08;;;;;;;11.20;9.65;;;;;;;15.45;28.81;100819.59;4993367;28;97557;-71
2021/05/01 10:32:46;;;;;;;11.27;9.52;;;;;;;15.34;28.44;100829.41;4995862;28;97224;-71
2021/05/01 10:35:15;;;;;;;12.10;10.18;;;;;;;15.31;29.07;100824.91;4994597;28;97174;-71
2021/05/01 10:37:49;;;;;;;12.82;10.15;;;;;;;15.40;28.91;100830.28;4997619;28;97261;-71
2021/05/01 10:40:17;;;;;;;9.90;9.00;;;;;;;15.46;28.86;100830.31;4993455;28;96864;-71
2021/05/01 10:42:44;;;;;;;14.93;12.98;;;;;;;15.57;28.80;100828.56;5010177;27;97576;-71
2021/05/01 10:45:14;;;;;;;14.57;12.32;;;;;;;15.70;28.61;100821.41;4996241;28;97176;-71
2021/05/01 10:48:03;;;;;;;11.70;10.38;;;;;;;15.84;28.10;100809.78;5002751;27;97657;-71
2021/05/01 10:50:30;;;;;;;11.30;10.07;;;;;;;15.94;28.09;100816.94;4994904;28;98713;-73
2021/05/01 10:52:58;;;;;;;10.32;9.25;;;;;;;16.03;28.34;100814.25;4995113;28;97818;-74
2021/05/01 10:55:26;;;;;;;10.63;9.50;;;;;;;16.10;28.05;100813.34;4997599;28;97231;-72
2021/05/01 10:57:57;;;;;;;12.00;10.43;;;;;;;16.17;27.98;100811.59;4992267;28;98081;-71
2021/05/01 11:00:25;;;;;;;11.93;10.10;;;;;;;16.12;28.16;100813.38;4992860;28;96977;-72
2021/05/01 11:03:01;;;;;;;11.52;10.32;;;;;;;16.03;27.89;100808.91;4996681;27;97970;-71
2021/05/01 11:05:32;;;;;;;12.27;10.35;;;;;;;15.94;28.19;100806.19;5013040;27;97369;-71
2021/05/01 11:08:05;;;;;;;12.38;11.07;;;;;;;15.92;27.83;100810.66;4995454;28;96861;-71
2021/05/01 11:10:35;;;;;;;13.68;10.30;;;;;;;15.89;28.25;100799.94;4994181;28;97259;-72
2021/05/01 11:13:05;;;;;;;11.43;10.32;;;;;;;15.95;27.83;100805.31;4992910;28;96911;-71
2021/05/01 11:15:45;;;;;;;11.80;10.50;;;;;;;16.02;27.81;100804.44;4995336;28;97438;-73
2021/05/01 11:18:19;;;;;;;10.68;9.35;;;;;;;16.09;27.72;100805.31;5011424;28;97456;-72